This is the latest recevied weather packets stored in our database for station/object OE3TEC-15. If no packets are shown the sender has not sent any weather packets the latest 1 day(s).
| Time | Temp. | Humidity | Pressure | Rain* | Wind** | Luminosity | Snow |
|---|---|---|---|---|---|---|---|
| 1778079038 | 26.11° C | 38% | 1004.6 hPa | 0 mm | - | 306 W/m² | - |
| 1778074787 | 25.56° C | 37% | 1005.5 hPa | 0 mm | - | 467 W/m² | - |
| 1778074179 | 25° C | 39% | 1005.5 hPa | 0 mm | - | 518 W/m² | - |
| 1778073572 | 25° C | 39% | 1006.1 hPa | 0 mm | - | 421 W/m² | - |
| 1778071144 | 25.56° C | 40% | 1006.6 hPa | 0 mm | - | 406 W/m² | - |
| 1778070536 | 25.56° C | 39% | 1007.1 hPa | 0 mm | - | 601 W/m² | - |
| 1778069929 | 25.56° C | 38% | 1006.9 hPa | 0 mm | - | 779 W/m² | - |
| 1778068714 | 24.44° C | 41% | 1007.2 hPa | 0 mm | - | 726 W/m² | - |
| 1778067507 | 24.44° C | 41% | 1007.3 hPa | 0 mm | - | 627 W/m² | - |
| 1778066904 | 23.89° C | 43% | 1007.6 hPa | 0 mm | - | 679 W/m² | - |
| 1778065688 | 24.44° C | 44% | 1007.7 hPa | 0 mm | - | 483 W/m² | - |
| 1778065080 | 23.89° C | 45% | 1007.8 hPa | 0 mm | - | 582 W/m² | - |
| 1778064473 | 23.89° C | 44% | 1008 hPa | 0 mm | - | 772 W/m² | - |
| 1778062052 | 23.89° C | 43% | 1008.5 hPa | 0 mm | - | 728 W/m² | - |
| 1778061445 | 23.89° C | 44% | 1008.6 hPa | 0 mm | - | 719 W/m² | - |
| 1778060838 | 23.33° C | 45% | 1008.6 hPa | 0 mm | - | 443 W/m² | - |
| 1778060232 | 23.33° C | 46% | 1008.8 hPa | 0 mm | - | 672 W/m² | - |
| 1778055372 | 21.11° C | 48% | 1009.2 hPa | 0 mm | - | 540 W/m² | - |
| 1778052944 | 20° C | 54% | 1009.8 hPa | 0 mm | - | 469 W/m² | - |
| 1778052336 | 20° C | 56% | 1009.7 hPa | 0 mm | - | 496 W/m² | - |
| 1778051728 | 20° C | 55% | 1009.8 hPa | 0 mm | - | 331 W/m² | - |
| 1778050515 | 18.89° C | 61% | 1009.9 hPa | 0 mm | - | 373 W/m² | - |
| 1778049907 | 17.78° C | 63% | 1009.9 hPa | 0 mm | - | 96 W/m² | - |
| 1778049300 | 18.33° C | 65% | 1010 hPa | 0 mm | - | 309 W/m² | - |
| 1778048692 | 17.78° C | 66% | 1009.7 hPa | 0 mm | - | 279 W/m² | - |
* Rain latest hour (hover to see other rain measurements)
** Current wind speed in m/s (hover to see current wind gust speed)